sensor_id;sensor_type;location;lat;lon;timestamp;P1;durP1;ratioP1;P2;durP2;ratioP2
27895;SDS011;15241;48.374;10.876;2022-10-26T00:04:00;6.60;;;3.75;;
27895;SDS011;15241;48.374;10.876;2022-10-26T00:08:59;11.15;;;4.10;;
27895;SDS011;15241;48.374;10.876;2022-10-26T00:13:58;4.17;;;3.30;;
27895;SDS011;15241;48.374;10.876;2022-10-26T00:18:57;6.25;;;3.02;;
27895;SDS011;15241;48.374;10.876;2022-10-26T00:23:56;9.35;;;3.42;;
27895;SDS011;15241;48.374;10.876;2022-10-26T00:28:56;4.85;;;2.80;;
27895;SDS011;15241;48.374;10.876;2022-10-26T00:33:55;7.00;;;3.05;;
27895;SDS011;15241;48.374;10.876;2022-10-26T00:38:54;7.80;;;2.87;;
27895;SDS011;15241;48.374;10.876;2022-10-26T00:43:54;5.65;;;2.90;;
27895;SDS011;15241;48.374;10.876;2022-10-26T00:48:54;3.95;;;2.35;;
27895;SDS011;15241;48.374;10.876;2022-10-26T00:53:55;7.22;;;3.10;;
27895;SDS011;15241;48.374;10.876;2022-10-26T00:58:54;6.30;;;2.80;;
27895;SDS011;15241;48.374;10.876;2022-10-26T01:03:55;6.87;;;2.95;;
27895;SDS011;15241;48.374;10.876;2022-10-26T01:08:54;5.78;;;2.62;;
27895;SDS011;15241;48.374;10.876;2022-10-26T01:13:53;3.55;;;2.50;;
27895;SDS011;15241;48.374;10.876;2022-10-26T01:18:56;4.83;;;2.65;;
27895;SDS011;15241;48.374;10.876;2022-10-26T01:24:07;4.47;;;2.80;;
27895;SDS011;15241;48.374;10.876;2022-10-26T01:29:31;6.15;;;2.80;;
27895;SDS011;15241;48.374;10.876;2022-10-26T01:34:56;4.12;;;2.90;;
27895;SDS011;15241;48.374;10.876;2022-10-26T01:39:58;5.83;;;3.08;;
27895;SDS011;15241;48.374;10.876;2022-10-26T01:45:02;5.03;;;2.83;;
27895;SDS011;15241;48.374;10.876;2022-10-26T01:50:03;3.52;;;2.75;;
27895;SDS011;15241;48.374;10.876;2022-10-26T01:55:31;5.45;;;2.80;;
27895;SDS011;15241;48.374;10.876;2022-10-26T02:00:25;8.83;;;3.35;;
27895;SDS011;15241;48.374;10.876;2022-10-26T02:05:30;5.80;;;3.22;;
27895;SDS011;15241;48.374;10.876;2022-10-26T02:10:38;5.67;;;3.27;;
27895;SDS011;15241;48.374;10.876;2022-10-26T02:15:42;5.50;;;3.85;;
27895;SDS011;15241;48.374;10.876;2022-10-26T02:20:50;5.40;;;3.37;;
27895;SDS011;15241;48.374;10.876;2022-10-26T02:25:53;4.75;;;2.98;;
27895;SDS011;15241;48.374;10.876;2022-10-26T02:30:55;6.60;;;3.10;;
27895;SDS011;15241;48.374;10.876;2022-10-26T02:35:57;5.58;;;3.65;;
27895;SDS011;15241;48.374;10.876;2022-10-26T02:40:57;4.60;;;2.70;;
27895;SDS011;15241;48.374;10.876;2022-10-26T02:45:59;5.15;;;2.55;;
27895;SDS011;15241;48.374;10.876;2022-10-26T02:51:01;5.10;;;2.90;;
27895;SDS011;15241;48.374;10.876;2022-10-26T02:56:10;3.90;;;2.47;;
27895;SDS011;15241;48.374;10.876;2022-10-26T03:01:12;7.80;;;2.87;;
27895;SDS011;15241;48.374;10.876;2022-10-26T03:06:11;4.80;;;2.67;;
27895;SDS011;15241;48.374;10.876;2022-10-26T03:11:15;6.65;;;2.62;;
27895;SDS011;15241;48.374;10.876;2022-10-26T03:16:14;6.05;;;2.95;;
27895;SDS011;15241;48.374;10.876;2022-10-26T03:21:13;4.10;;;2.62;;
27895;SDS011;15241;48.374;10.876;2022-10-26T03:26:12;7.45;;;2.70;;
27895;SDS011;15241;48.374;10.876;2022-10-26T03:31:10;3.52;;;2.70;;
27895;SDS011;15241;48.374;10.876;2022-10-26T03:36:10;5.22;;;2.92;;
27895;SDS011;15241;48.374;10.876;2022-10-26T03:41:09;5.12;;;2.70;;
27895;SDS011;15241;48.374;10.876;2022-10-26T03:46:07;5.15;;;2.27;;
27895;SDS011;15241;48.374;10.876;2022-10-26T03:51:06;4.78;;;2.47;;
27895;SDS011;15241;48.374;10.876;2022-10-26T03:56:06;5.08;;;2.70;;
27895;SDS011;15241;48.374;10.876;2022-10-26T04:01:05;4.08;;;2.27;;
27895;SDS011;15241;48.374;10.876;2022-10-26T04:06:04;8.30;;;2.55;;
27895;SDS011;15241;48.374;10.876;2022-10-26T04:11:04;4.80;;;2.20;;
27895;SDS011;15241;48.374;10.876;2022-10-26T04:16:03;4.17;;;2.62;;
27895;SDS011;15241;48.374;10.876;2022-10-26T04:21:03;5.83;;;2.15;;
27895;SDS011;15241;48.374;10.876;2022-10-26T04:26:04;5.15;;;2.70;;
27895;SDS011;15241;48.374;10.876;2022-10-26T04:31:03;5.25;;;3.40;;
27895;SDS011;15241;48.374;10.876;2022-10-26T04:36:02;5.37;;;3.10;;
27895;SDS011;15241;48.374;10.876;2022-10-26T04:41:02;6.85;;;3.50;;
27895;SDS011;15241;48.374;10.876;2022-10-26T04:46:01;4.47;;;3.10;;
27895;SDS011;15241;48.374;10.876;2022-10-26T04:51:00;9.00;;;3.22;;
27895;SDS011;15241;48.374;10.876;2022-10-26T04:56:00;6.42;;;3.20;;
27895;SDS011;15241;48.374;10.876;2022-10-26T05:01:00;4.72;;;3.30;;
27895;SDS011;15241;48.374;10.876;2022-10-26T05:05:59;6.15;;;3.25;;
27895;SDS011;15241;48.374;10.876;2022-10-26T05:10:58;6.25;;;3.33;;
27895;SDS011;15241;48.374;10.876;2022-10-26T05:15:57;10.38;;;3.90;;
27895;SDS011;15241;48.374;10.876;2022-10-26T05:20:57;7.65;;;5.00;;
27895;SDS011;15241;48.374;10.876;2022-10-26T05:25:56;7.78;;;3.47;;
27895;SDS011;15241;48.374;10.876;2022-10-26T05:30:54;8.70;;;3.33;;
27895;SDS011;15241;48.374;10.876;2022-10-26T05:36:04;7.00;;;3.27;;
27895;SDS011;15241;48.374;10.876;2022-10-26T05:41:03;6.67;;;3.37;;
27895;SDS011;15241;48.374;10.876;2022-10-26T05:46:02;7.10;;;3.50;;
27895;SDS011;15241;48.374;10.876;2022-10-26T05:51:01;4.15;;;2.85;;
27895;SDS011;15241;48.374;10.876;2022-10-26T05:56:01;5.28;;;2.60;;
27895;SDS011;15241;48.374;10.876;2022-10-26T06:01:07;8.13;;;3.20;;
27895;SDS011;15241;48.374;10.876;2022-10-26T06:06:08;6.42;;;3.00;;
27895;SDS011;15241;48.374;10.876;2022-10-26T06:11:10;8.60;;;3.20;;
27895;SDS011;15241;48.374;10.876;2022-10-26T06:16:30;4.58;;;2.60;;
27895;SDS011;15241;48.374;10.876;2022-10-26T06:21:24;4.97;;;2.52;;
27895;SDS011;15241;48.374;10.876;2022-10-26T06:26:30;10.85;;;3.10;;
27895;SDS011;15241;48.374;10.876;2022-10-26T06:31:39;4.87;;;2.72;;
27895;SDS011;15241;48.374;10.876;2022-10-26T06:36:38;11.93;;;3.50;;
27895;SDS011;15241;48.374;10.876;2022-10-26T06:41:39;8.15;;;2.75;;
27895;SDS011;15241;48.374;10.876;2022-10-26T06:46:40;4.80;;;2.70;;
27895;SDS011;15241;48.374;10.876;2022-10-26T06:51:44;5.08;;;2.80;;
27895;SDS011;15241;48.374;10.876;2022-10-26T06:56:44;6.10;;;2.93;;
27895;SDS011;15241;48.374;10.876;2022-10-26T07:01:44;9.43;;;3.22;;
27895;SDS011;15241;48.374;10.876;2022-10-26T07:06:43;8.98;;;3.80;;
27895;SDS011;15241;48.374;10.876;2022-10-26T07:11:42;6.85;;;3.15;;
27895;SDS011;15241;48.374;10.876;2022-10-26T07:16:40;8.80;;;3.37;;
27895;SDS011;15241;48.374;10.876;2022-10-26T07:21:40;7.92;;;3.22;;
27895;SDS011;15241;48.374;10.876;2022-10-26T07:26:39;4.87;;;2.98;;
27895;SDS011;15241;48.374;10.876;2022-10-26T07:31:38;5.30;;;2.80;;
27895;SDS011;15241;48.374;10.876;2022-10-26T07:36:37;3.60;;;3.00;;
27895;SDS011;15241;48.374;10.876;2022-10-26T07:41:36;5.78;;;2.90;;
27895;SDS011;15241;48.374;10.876;2022-10-26T07:46:35;5.35;;;3.30;;
27895;SDS011;15241;48.374;10.876;2022-10-26T07:51:33;8.33;;;4.10;;
27895;SDS011;15241;48.374;10.876;2022-10-26T07:56:32;9.03;;;3.83;;
27895;SDS011;15241;48.374;10.876;2022-10-26T08:01:31;15.48;;;8.20;;
27895;SDS011;15241;48.374;10.876;2022-10-26T08:06:30;5.28;;;3.52;;
27895;SDS011;15241;48.374;10.876;2022-10-26T08:11:29;6.92;;;3.33;;
27895;SDS011;15241;48.374;10.876;2022-10-26T08:16:28;6.33;;;3.25;;
27895;SDS011;15241;48.374;10.876;2022-10-26T08:21:27;5.72;;;3.22;;
27895;SDS011;15241;48.374;10.876;2022-10-26T08:26:26;5.97;;;2.98;;
27895;SDS011;15241;48.374;10.876;2022-10-26T08:31:26;5.65;;;3.02;;
27895;SDS011;15241;48.374;10.876;2022-10-26T08:36:25;5.10;;;2.35;;
27895;SDS011;15241;48.374;10.876;2022-10-26T08:41:28;4.55;;;3.15;;
27895;SDS011;15241;48.374;10.876;2022-10-26T08:46:32;6.87;;;2.42;;
27895;SDS011;15241;48.374;10.876;2022-10-26T08:51:34;4.85;;;2.60;;
27895;SDS011;15241;48.374;10.876;2022-10-26T08:56:36;4.00;;;2.20;;
27895;SDS011;15241;48.374;10.876;2022-10-26T09:01:36;3.10;;;2.05;;
27895;SDS011;15241;48.374;10.876;2022-10-26T09:06:39;4.40;;;1.95;;
27895;SDS011;15241;48.374;10.876;2022-10-26T09:11:48;3.50;;;2.20;;
27895;SDS011;15241;48.374;10.876;2022-10-26T09:16:54;4.15;;;1.90;;
27895;SDS011;15241;48.374;10.876;2022-10-26T09:21:56;7.78;;;2.47;;
27895;SDS011;15241;48.374;10.876;2022-10-26T09:26:59;2.95;;;1.70;;
27895;SDS011;15241;48.374;10.876;2022-10-26T09:32:01;11.15;;;3.20;;
27895;SDS011;15241;48.374;10.876;2022-10-26T09:37:01;4.20;;;2.30;;
27895;SDS011;15241;48.374;10.876;2022-10-26T09:42:11;9.58;;;2.45;;
27895;SDS011;15241;48.374;10.876;2022-10-26T09:47:13;7.42;;;2.30;;
27895;SDS011;15241;48.374;10.876;2022-10-26T09:52:15;18.10;;;3.27;;
27895;SDS011;15241;48.374;10.876;2022-10-26T09:57:14;7.75;;;2.80;;
27895;SDS011;15241;48.374;10.876;2022-10-26T10:02:31;7.37;;;2.37;;
27895;SDS011;15241;48.374;10.876;2022-10-26T10:07:34;4.87;;;1.75;;
27895;SDS011;15241;48.374;10.876;2022-10-26T10:12:33;8.08;;;2.00;;
27895;SDS011;15241;48.374;10.876;2022-10-26T10:17:32;4.03;;;1.87;;
27895;SDS011;15241;48.374;10.876;2022-10-26T10:22:31;5.72;;;1.65;;
27895;SDS011;15241;48.374;10.876;2022-10-26T10:27:30;5.62;;;1.80;;
27895;SDS011;15241;48.374;10.876;2022-10-26T10:32:30;5.17;;;1.60;;
27895;SDS011;15241;48.374;10.876;2022-10-26T10:37:30;5.33;;;1.80;;
27895;SDS011;15241;48.374;10.876;2022-10-26T10:42:31;5.17;;;2.20;;
27895;SDS011;15241;48.374;10.876;2022-10-26T10:47:32;4.85;;;1.80;;
27895;SDS011;15241;48.374;10.876;2022-10-26T10:52:34;8.60;;;2.27;;
27895;SDS011;15241;48.374;10.876;2022-10-26T10:57:36;5.75;;;2.20;;
27895;SDS011;15241;48.374;10.876;2022-10-26T11:02:51;2.27;;;1.80;;
27895;SDS011;15241;48.374;10.876;2022-10-26T11:08:20;4.53;;;2.10;;
27895;SDS011;15241;48.374;10.876;2022-10-26T11:13:23;5.65;;;1.95;;
27895;SDS011;15241;48.374;10.876;2022-10-26T11:18:25;5.78;;;2.02;;
27895;SDS011;15241;48.374;10.876;2022-10-26T11:23:30;7.37;;;1.80;;
27895;SDS011;15241;48.374;10.876;2022-10-26T11:28:43;7.80;;;2.62;;
27895;SDS011;15241;48.374;10.876;2022-10-26T11:33:44;4.50;;;1.92;;
27895;SDS011;15241;48.374;10.876;2022-10-26T11:38:47;12.73;;;2.45;;
27895;SDS011;15241;48.374;10.876;2022-10-26T11:43:49;10.25;;;2.70;;
27895;SDS011;15241;48.374;10.876;2022-10-26T11:48:53;17.20;;;3.87;;
27895;SDS011;15241;48.374;10.876;2022-10-26T11:54:02;5.50;;;2.00;;
27895;SDS011;15241;48.374;10.876;2022-10-26T11:59:05;6.25;;;1.90;;
27895;SDS011;15241;48.374;10.876;2022-10-26T12:04:06;5.05;;;2.00;;
27895;SDS011;15241;48.374;10.876;2022-10-26T12:09:07;4.65;;;2.00;;
27895;SDS011;15241;48.374;10.876;2022-10-26T12:14:12;3.70;;;2.17;;
27895;SDS011;15241;48.374;10.876;2022-10-26T12:19:16;4.90;;;1.72;;
27895;SDS011;15241;48.374;10.876;2022-10-26T12:24:24;4.97;;;2.62;;
27895;SDS011;15241;48.374;10.876;2022-10-26T12:29:29;7.72;;;2.02;;
27895;SDS011;15241;48.374;10.876;2022-10-26T12:45:33;6.47;;;2.22;;
27895;SDS011;15241;48.374;10.876;2022-10-26T12:50:32;5.30;;;1.80;;
27895;SDS011;15241;48.374;10.876;2022-10-26T13:06:43;8.20;;;2.72;;
27895;SDS011;15241;48.374;10.876;2022-10-26T13:12:05;12.80;;;2.67;;
27895;SDS011;15241;48.374;10.876;2022-10-26T13:17:04;6.05;;;2.52;;
27895;SDS011;15241;48.374;10.876;2022-10-26T13:22:05;4.42;;;2.67;;
27895;SDS011;15241;48.374;10.876;2022-10-26T13:27:23;7.20;;;2.77;;
27895;SDS011;15241;48.374;10.876;2022-10-26T13:32:26;7.40;;;3.17;;
27895;SDS011;15241;48.374;10.876;2022-10-26T13:37:26;5.85;;;2.47;;
27895;SDS011;15241;48.374;10.876;2022-10-26T13:42:29;4.67;;;2.20;;
27895;SDS011;15241;48.374;10.876;2022-10-26T13:47:34;10.08;;;2.47;;
27895;SDS011;15241;48.374;10.876;2022-10-26T13:57:39;8.10;;;2.85;;
27895;SDS011;15241;48.374;10.876;2022-10-26T14:02:40;7.87;;;2.72;;
27895;SDS011;15241;48.374;10.876;2022-10-26T14:07:40;14.75;;;3.00;;
27895;SDS011;15241;48.374;10.876;2022-10-26T14:17:39;6.17;;;2.35;;
27895;SDS011;15241;48.374;10.876;2022-10-26T14:22:38;7.50;;;2.83;;
27895;SDS011;15241;48.374;10.876;2022-10-26T14:27:38;8.70;;;2.70;;
27895;SDS011;15241;48.374;10.876;2022-10-26T14:32:37;5.22;;;2.12;;
27895;SDS011;15241;48.374;10.876;2022-10-26T14:37:37;6.55;;;2.50;;
27895;SDS011;15241;48.374;10.876;2022-10-26T14:42:38;6.45;;;2.35;;
27895;SDS011;15241;48.374;10.876;2022-10-26T14:47:39;6.92;;;2.30;;
27895;SDS011;15241;48.374;10.876;2022-10-26T14:52:40;9.35;;;2.35;;
27895;SDS011;15241;48.374;10.876;2022-10-26T14:57:41;10.32;;;3.05;;
27895;SDS011;15241;48.374;10.876;2022-10-26T15:02:42;27.70;;;4.85;;
27895;SDS011;15241;48.374;10.876;2022-10-26T15:07:42;11.10;;;3.25;;
27895;SDS011;15241;48.374;10.876;2022-10-26T15:12:41;11.25;;;2.67;;
27895;SDS011;15241;48.374;10.876;2022-10-26T15:17:40;13.62;;;3.15;;
27895;SDS011;15241;48.374;10.876;2022-10-26T15:22:41;12.45;;;3.35;;
27895;SDS011;15241;48.374;10.876;2022-10-26T15:27:42;8.33;;;2.92;;
27895;SDS011;15241;48.374;10.876;2022-10-26T15:32:41;7.40;;;3.00;;
27895;SDS011;15241;48.374;10.876;2022-10-26T15:37:40;14.10;;;3.37;;
27895;SDS011;15241;48.374;10.876;2022-10-26T15:42:39;9.40;;;3.60;;
27895;SDS011;15241;48.374;10.876;2022-10-26T15:47:39;8.38;;;3.15;;
27895;SDS011;15241;48.374;10.876;2022-10-26T15:52:38;12.30;;;3.45;;
27895;SDS011;15241;48.374;10.876;2022-10-26T15:57:37;7.33;;;2.85;;
27895;SDS011;15241;48.374;10.876;2022-10-26T16:02:36;6.05;;;3.50;;
27895;SDS011;15241;48.374;10.876;2022-10-26T16:07:39;9.33;;;3.00;;
27895;SDS011;15241;48.374;10.876;2022-10-26T16:12:39;11.22;;;3.20;;
27895;SDS011;15241;48.374;10.876;2022-10-26T16:17:38;15.32;;;3.90;;
27895;SDS011;15241;48.374;10.876;2022-10-26T16:22:37;8.15;;;3.27;;
27895;SDS011;15241;48.374;10.876;2022-10-26T16:27:36;10.55;;;3.17;;
27895;SDS011;15241;48.374;10.876;2022-10-26T16:32:36;10.53;;;3.22;;
27895;SDS011;15241;48.374;10.876;2022-10-26T16:37:35;10.38;;;3.37;;
27895;SDS011;15241;48.374;10.876;2022-10-26T16:42:34;7.20;;;3.35;;
27895;SDS011;15241;48.374;10.876;2022-10-26T16:47:33;12.15;;;3.47;;
27895;SDS011;15241;48.374;10.876;2022-10-26T16:52:33;12.68;;;4.05;;
27895;SDS011;15241;48.374;10.876;2022-10-26T16:57:33;11.40;;;4.12;;
27895;SDS011;15241;48.374;10.876;2022-10-26T17:02:33;10.58;;;4.42;;
27895;SDS011;15241;48.374;10.876;2022-10-26T17:07:32;13.98;;;3.72;;
27895;SDS011;15241;48.374;10.876;2022-10-26T17:12:30;14.00;;;4.80;;
27895;SDS011;15241;48.374;10.876;2022-10-26T17:17:29;22.05;;;5.50;;
27895;SDS011;15241;48.374;10.876;2022-10-26T17:22:28;14.87;;;4.67;;
27895;SDS011;15241;48.374;10.876;2022-10-26T17:27:27;20.48;;;6.03;;
27895;SDS011;15241;48.374;10.876;2022-10-26T17:32:26;13.53;;;5.87;;
27895;SDS011;15241;48.374;10.876;2022-10-26T17:37:25;14.28;;;5.90;;
27895;SDS011;15241;48.374;10.876;2022-10-26T17:42:24;16.27;;;5.42;;
27895;SDS011;15241;48.374;10.876;2022-10-26T17:47:23;12.98;;;5.80;;
27895;SDS011;15241;48.374;10.876;2022-10-26T17:52:22;13.93;;;5.83;;
27895;SDS011;15241;48.374;10.876;2022-10-26T17:57:20;12.78;;;5.33;;
27895;SDS011;15241;48.374;10.876;2022-10-26T18:02:19;16.93;;;6.15;;
27895;SDS011;15241;48.374;10.876;2022-10-26T18:12:25;14.80;;;5.85;;
27895;SDS011;15241;48.374;10.876;2022-10-26T18:17:24;15.08;;;7.25;;
27895;SDS011;15241;48.374;10.876;2022-10-26T18:22:23;21.02;;;8.73;;
27895;SDS011;15241;48.374;10.876;2022-10-26T18:27:22;14.15;;;8.45;;
27895;SDS011;15241;48.374;10.876;2022-10-26T18:32:21;16.52;;;7.80;;
27895;SDS011;15241;48.374;10.876;2022-10-26T18:37:20;33.50;;;22.05;;
27895;SDS011;15241;48.374;10.876;2022-10-26T18:42:19;16.73;;;9.55;;
27895;SDS011;15241;48.374;10.876;2022-10-26T18:47:18;18.62;;;8.40;;
27895;SDS011;15241;48.374;10.876;2022-10-26T18:52:16;13.15;;;7.55;;
27895;SDS011;15241;48.374;10.876;2022-10-26T18:57:15;15.90;;;8.65;;
27895;SDS011;15241;48.374;10.876;2022-10-26T19:02:14;18.73;;;8.33;;
27895;SDS011;15241;48.374;10.876;2022-10-26T19:07:14;14.78;;;7.78;;
27895;SDS011;15241;48.374;10.876;2022-10-26T19:12:12;14.33;;;7.85;;
27895;SDS011;15241;48.374;10.876;2022-10-26T19:17:11;20.10;;;8.28;;
27895;SDS011;15241;48.374;10.876;2022-10-26T19:22:10;16.07;;;8.05;;
27895;SDS011;15241;48.374;10.876;2022-10-26T19:27:09;14.63;;;7.45;;
27895;SDS011;15241;48.374;10.876;2022-10-26T19:37:14;14.93;;;7.10;;
27895;SDS011;15241;48.374;10.876;2022-10-26T19:42:14;15.60;;;7.92;;
27895;SDS011;15241;48.374;10.876;2022-10-26T19:47:13;12.43;;;7.67;;
27895;SDS011;15241;48.374;10.876;2022-10-26T19:52:12;15.48;;;7.55;;
27895;SDS011;15241;48.374;10.876;2022-10-26T19:57:11;15.38;;;8.28;;
27895;SDS011;15241;48.374;10.876;2022-10-26T20:02:09;19.90;;;8.33;;
27895;SDS011;15241;48.374;10.876;2022-10-26T20:07:08;15.85;;;7.92;;
27895;SDS011;15241;48.374;10.876;2022-10-26T20:12:07;17.52;;;8.38;;
27895;SDS011;15241;48.374;10.876;2022-10-26T20:17:06;13.62;;;7.40;;
27895;SDS011;15241;48.374;10.876;2022-10-26T20:22:05;14.50;;;8.10;;
27895;SDS011;15241;48.374;10.876;2022-10-26T20:27:04;14.13;;;7.67;;
27895;SDS011;15241;48.374;10.876;2022-10-26T20:32:03;14.30;;;7.35;;
27895;SDS011;15241;48.374;10.876;2022-10-26T20:37:02;12.00;;;6.87;;
27895;SDS011;15241;48.374;10.876;2022-10-26T20:42:02;13.58;;;8.63;;
27895;SDS011;15241;48.374;10.876;2022-10-26T20:47:02;13.88;;;7.28;;
27895;SDS011;15241;48.374;10.876;2022-10-26T20:52:03;15.58;;;7.90;;
27895;SDS011;15241;48.374;10.876;2022-10-26T20:57:04;15.00;;;8.13;;
27895;SDS011;15241;48.374;10.876;2022-10-26T21:02:07;12.45;;;7.15;;
27895;SDS011;15241;48.374;10.876;2022-10-26T21:07:07;12.90;;;7.20;;
27895;SDS011;15241;48.374;10.876;2022-10-26T21:12:06;18.37;;;7.72;;
27895;SDS011;15241;48.374;10.876;2022-10-26T21:17:05;15.53;;;7.28;;
27895;SDS011;15241;48.374;10.876;2022-10-26T21:22:04;22.52;;;7.55;;
27895;SDS011;15241;48.374;10.876;2022-10-26T21:27:03;11.88;;;7.62;;
27895;SDS011;15241;48.374;10.876;2022-10-26T21:32:02;12.88;;;7.08;;
27895;SDS011;15241;48.374;10.876;2022-10-26T21:37:02;14.40;;;6.97;;
27895;SDS011;15241;48.374;10.876;2022-10-26T21:42:09;15.30;;;7.58;;
27895;SDS011;15241;48.374;10.876;2022-10-26T21:47:08;13.68;;;7.10;;
27895;SDS011;15241;48.374;10.876;2022-10-26T21:52:07;16.42;;;8.15;;
27895;SDS011;15241;48.374;10.876;2022-10-26T21:57:06;14.33;;;8.05;;
27895;SDS011;15241;48.374;10.876;2022-10-26T22:02:05;14.33;;;6.92;;
27895;SDS011;15241;48.374;10.876;2022-10-26T22:07:04;13.25;;;7.17;;
27895;SDS011;15241;48.374;10.876;2022-10-26T22:12:04;13.72;;;7.00;;
27895;SDS011;15241;48.374;10.876;2022-10-26T22:17:03;24.00;;;9.38;;
27895;SDS011;15241;48.374;10.876;2022-10-26T22:22:02;17.50;;;7.65;;
27895;SDS011;15241;48.374;10.876;2022-10-26T22:27:01;14.35;;;8.35;;
27895;SDS011;15241;48.374;10.876;2022-10-26T22:32:01;13.32;;;7.70;;
27895;SDS011;15241;48.374;10.876;2022-10-26T22:37:00;16.23;;;7.65;;
27895;SDS011;15241;48.374;10.876;2022-10-26T22:41:59;16.32;;;8.10;;
27895;SDS011;15241;48.374;10.876;2022-10-26T22:46:58;12.80;;;6.97;;
27895;SDS011;15241;48.374;10.876;2022-10-26T22:51:57;14.93;;;6.78;;
27895;SDS011;15241;48.374;10.876;2022-10-26T22:56:56;11.63;;;7.05;;
27895;SDS011;15241;48.374;10.876;2022-10-26T23:01:54;14.05;;;6.72;;
27895;SDS011;15241;48.374;10.876;2022-10-26T23:06:53;11.05;;;7.22;;
27895;SDS011;15241;48.374;10.876;2022-10-26T23:11:52;13.13;;;7.15;;
27895;SDS011;15241;48.374;10.876;2022-10-26T23:16:51;15.23;;;7.05;;
27895;SDS011;15241;48.374;10.876;2022-10-26T23:21:50;14.40;;;7.30;;
27895;SDS011;15241;48.374;10.876;2022-10-26T23:26:49;14.70;;;6.58;;
27895;SDS011;15241;48.374;10.876;2022-10-26T23:31:48;16.67;;;7.45;;
27895;SDS011;15241;48.374;10.876;2022-10-26T23:41:53;14.85;;;7.30;;
27895;SDS011;15241;48.374;10.876;2022-10-26T23:46:52;15.00;;;8.03;;
27895;SDS011;15241;48.374;10.876;2022-10-26T23:52:09;12.45;;;7.70;;
27895;SDS011;15241;48.374;10.876;2022-10-26T23:57:08;22.42;;;8.33;;
